sensor_id;sensor_type;location;lat;lon;timestamp;temperature;humidity
5210;DHT22;2624;48.048;11.706;2022-10-16T00:00:21;13.60;99.90
5210;DHT22;2624;48.048;11.706;2022-10-16T00:05:24;13.60;99.90
5210;DHT22;2624;48.048;11.706;2022-10-16T00:10:26;13.60;99.90
5210;DHT22;2624;48.048;11.706;2022-10-16T00:15:27;13.50;99.90
5210;DHT22;2624;48.048;11.706;2022-10-16T00:20:33;13.70;99.90
5210;DHT22;2624;48.048;11.706;2022-10-16T00:25:37;13.50;99.90
5210;DHT22;2624;48.048;11.706;2022-10-16T00:30:39;13.40;99.90
5210;DHT22;2624;48.048;11.706;2022-10-16T00:35:42;13.50;99.90
5210;DHT22;2624;48.048;11.706;2022-10-16T00:40:44;13.20;99.90
5210;DHT22;2624;48.048;11.706;2022-10-16T00:45:46;13.20;99.90
5210;DHT22;2624;48.048;11.706;2022-10-16T00:50:49;13.20;99.90
5210;DHT22;2624;48.048;11.706;2022-10-16T00:55:51;13.20;99.90
5210;DHT22;2624;48.048;11.706;2022-10-16T01:00:53;13.20;99.90
5210;DHT22;2624;48.048;11.706;2022-10-16T01:06:05;13.10;99.90
5210;DHT22;2624;48.048;11.706;2022-10-16T01:11:17;13.10;99.90
5210;DHT22;2624;48.048;11.706;2022-10-16T01:16:28;13.00;99.90
5210;DHT22;2624;48.048;11.706;2022-10-16T01:21:36;13.20;99.90
5210;DHT22;2624;48.048;11.706;2022-10-16T01:27:06;13.20;99.90
5210;DHT22;2624;48.048;11.706;2022-10-16T01:32:13;13.10;99.90
5210;DHT22;2624;48.048;11.706;2022-10-16T01:37:22;13.20;99.90
5210;DHT22;2624;48.048;11.706;2022-10-16T01:42:30;13.10;99.90
5210;DHT22;2624;48.048;11.706;2022-10-16T01:47:33;13.30;99.90
5210;DHT22;2624;48.048;11.706;2022-10-16T01:52:40;13.40;99.90
5210;DHT22;2624;48.048;11.706;2022-10-16T01:57:46;13.10;99.90
5210;DHT22;2624;48.048;11.706;2022-10-16T02:02:53;12.90;99.90
5210;DHT22;2624;48.048;11.706;2022-10-16T02:07:55;13.00;99.90
5210;DHT22;2624;48.048;11.706;2022-10-16T02:13:02;13.00;99.90
5210;DHT22;2624;48.048;11.706;2022-10-16T02:18:05;12.70;99.90
5210;DHT22;2624;48.048;11.706;2022-10-16T02:23:11;12.70;99.90
5210;DHT22;2624;48.048;11.706;2022-10-16T02:28:18;12.70;99.90
5210;DHT22;2624;48.048;11.706;2022-10-16T02:33:21;12.70;99.90
5210;DHT22;2624;48.048;11.706;2022-10-16T02:38:25;12.90;99.90
5210;DHT22;2624;48.048;11.706;2022-10-16T02:43:29;12.90;99.90
5210;DHT22;2624;48.048;11.706;2022-10-16T02:48:30;12.80;99.90
5210;DHT22;2624;48.048;11.706;2022-10-16T02:53:32;12.70;99.90
5210;DHT22;2624;48.048;11.706;2022-10-16T02:58:35;12.80;99.90
5210;DHT22;2624;48.048;11.706;2022-10-16T03:03:37;12.80;99.90
5210;DHT22;2624;48.048;11.706;2022-10-16T03:08:39;12.80;99.90
5210;DHT22;2624;48.048;11.706;2022-10-16T03:13:42;13.00;99.90
5210;DHT22;2624;48.048;11.706;2022-10-16T03:18:47;12.90;99.90
5210;DHT22;2624;48.048;11.706;2022-10-16T03:23:49;12.80;99.90
5210;DHT22;2624;48.048;11.706;2022-10-16T03:28:53;12.60;99.90
5210;DHT22;2624;48.048;11.706;2022-10-16T03:33:54;12.40;99.90
5210;DHT22;2624;48.048;11.706;2022-10-16T03:38:56;12.30;99.90
5210;DHT22;2624;48.048;11.706;2022-10-16T03:43:59;12.20;99.90
5210;DHT22;2624;48.048;11.706;2022-10-16T03:49:01;12.30;99.90
5210;DHT22;2624;48.048;11.706;2022-10-16T03:54:03;12.20;99.90
5210;DHT22;2624;48.048;11.706;2022-10-16T03:59:06;12.20;99.90
5210;DHT22;2624;48.048;11.706;2022-10-16T04:04:08;12.20;99.90
5210;DHT22;2624;48.048;11.706;2022-10-16T04:09:10;12.20;99.90
5210;DHT22;2624;48.048;11.706;2022-10-16T04:14:13;12.20;99.90
5210;DHT22;2624;48.048;11.706;2022-10-16T04:19:15;12.30;99.90
5210;DHT22;2624;48.048;11.706;2022-10-16T04:24:17;12.50;99.90
5210;DHT22;2624;48.048;11.706;2022-10-16T04:29:20;12.50;99.90
5210;DHT22;2624;48.048;11.706;2022-10-16T04:34:22;12.50;99.90
5210;DHT22;2624;48.048;11.706;2022-10-16T04:39:23;12.60;99.90
5210;DHT22;2624;48.048;11.706;2022-10-16T04:44:27;12.60;99.90
5210;DHT22;2624;48.048;11.706;2022-10-16T04:49:28;12.50;99.90
5210;DHT22;2624;48.048;11.706;2022-10-16T04:54:30;12.60;99.90
5210;DHT22;2624;48.048;11.706;2022-10-16T04:59:33;12.70;99.90
5210;DHT22;2624;48.048;11.706;2022-10-16T05:04:35;12.60;99.90
5210;DHT22;2624;48.048;11.706;2022-10-16T05:09:37;12.60;99.90
5210;DHT22;2624;48.048;11.706;2022-10-16T05:14:40;12.70;99.90
5210;DHT22;2624;48.048;11.706;2022-10-16T05:19:42;12.70;99.90
5210;DHT22;2624;48.048;11.706;2022-10-16T05:24:44;12.70;99.90
5210;DHT22;2624;48.048;11.706;2022-10-16T05:29:48;12.70;99.90
5210;DHT22;2624;48.048;11.706;2022-10-16T05:34:50;12.70;99.90
5210;DHT22;2624;48.048;11.706;2022-10-16T05:39:52;12.70;99.90
5210;DHT22;2624;48.048;11.706;2022-10-16T05:44:55;12.70;99.90
5210;DHT22;2624;48.048;11.706;2022-10-16T05:49:57;12.70;99.90
5210;DHT22;2624;48.048;11.706;2022-10-16T05:54:59;12.50;99.90
5210;DHT22;2624;48.048;11.706;2022-10-16T06:00:03;12.40;99.90
5210;DHT22;2624;48.048;11.706;2022-10-16T06:05:05;12.20;99.90
5210;DHT22;2624;48.048;11.706;2022-10-16T06:10:08;12.40;99.90
5210;DHT22;2624;48.048;11.706;2022-10-16T06:15:11;12.40;99.90
5210;DHT22;2624;48.048;11.706;2022-10-16T06:20:13;12.50;99.90
5210;DHT22;2624;48.048;11.706;2022-10-16T06:25:15;12.50;99.90
5210;DHT22;2624;48.048;11.706;2022-10-16T06:30:18;12.50;99.90
5210;DHT22;2624;48.048;11.706;2022-10-16T06:35:20;12.40;99.90
5210;DHT22;2624;48.048;11.706;2022-10-16T06:40:22;12.50;99.90
5210;DHT22;2624;48.048;11.706;2022-10-16T06:45:25;12.50;99.90
5210;DHT22;2624;48.048;11.706;2022-10-16T06:50:27;12.50;99.90
5210;DHT22;2624;48.048;11.706;2022-10-16T06:55:29;12.60;99.90
5210;DHT22;2624;48.048;11.706;2022-10-16T07:00:32;12.60;99.90
5210;DHT22;2624;48.048;11.706;2022-10-16T07:05:37;12.60;99.90
5210;DHT22;2624;48.048;11.706;2022-10-16T07:10:39;12.70;99.90
5210;DHT22;2624;48.048;11.706;2022-10-16T07:15:42;12.70;99.90
5210;DHT22;2624;48.048;11.706;2022-10-16T07:20:44;12.80;99.90
5210;DHT22;2624;48.048;11.706;2022-10-16T07:25:46;12.80;99.90
5210;DHT22;2624;48.048;11.706;2022-10-16T07:30:55;12.90;99.90
5210;DHT22;2624;48.048;11.706;2022-10-16T07:36:01;13.00;99.90
5210;DHT22;2624;48.048;11.706;2022-10-16T07:41:04;13.10;99.90
5210;DHT22;2624;48.048;11.706;2022-10-16T07:46:08;13.30;99.90
5210;DHT22;2624;48.048;11.706;2022-10-16T07:51:14;13.50;99.90
5210;DHT22;2624;48.048;11.706;2022-10-16T07:56:17;13.40;99.90
5210;DHT22;2624;48.048;11.706;2022-10-16T08:01:21;13.60;99.90
5210;DHT22;2624;48.048;11.706;2022-10-16T08:06:22;13.60;99.90
5210;DHT22;2624;48.048;11.706;2022-10-16T08:11:24;13.70;99.90
5210;DHT22;2624;48.048;11.706;2022-10-16T08:16:27;14.10;99.90
5210;DHT22;2624;48.048;11.706;2022-10-16T08:21:29;13.90;99.90
5210;DHT22;2624;48.048;11.706;2022-10-16T08:26:31;13.70;99.90
5210;DHT22;2624;48.048;11.706;2022-10-16T08:31:34;13.80;99.90
5210;DHT22;2624;48.048;11.706;2022-10-16T08:36:36;14.00;99.90
5210;DHT22;2624;48.048;11.706;2022-10-16T08:41:59;14.30;99.90
5210;DHT22;2624;48.048;11.706;2022-10-16T08:47:13;14.60;99.90
5210;DHT22;2624;48.048;11.706;2022-10-16T08:52:18;15.10;99.90
5210;DHT22;2624;48.048;11.706;2022-10-16T08:57:22;15.50;99.90
5210;DHT22;2624;48.048;11.706;2022-10-16T09:02:31;15.90;99.90
5210;DHT22;2624;48.048;11.706;2022-10-16T09:07:41;15.70;99.90
5210;DHT22;2624;48.048;11.706;2022-10-16T09:12:51;15.90;99.90
5210;DHT22;2624;48.048;11.706;2022-10-16T09:18:00;15.60;99.90
5210;DHT22;2624;48.048;11.706;2022-10-16T09:23:15;15.60;99.90
5210;DHT22;2624;48.048;11.706;2022-10-16T09:28:18;15.70;99.90
5210;DHT22;2624;48.048;11.706;2022-10-16T09:33:24;15.90;99.90
5210;DHT22;2624;48.048;11.706;2022-10-16T09:38:28;16.20;99.90
5210;DHT22;2624;48.048;11.706;2022-10-16T09:43:34;15.80;99.90
5210;DHT22;2624;48.048;11.706;2022-10-16T09:48:44;16.30;99.90
5210;DHT22;2624;48.048;11.706;2022-10-16T09:53:47;17.40;99.90
5210;DHT22;2624;48.048;11.706;2022-10-16T09:58:50;18.50;99.90
5210;DHT22;2624;48.048;11.706;2022-10-16T10:03:55;18.60;99.90
5210;DHT22;2624;48.048;11.706;2022-10-16T10:09:13;18.90;99.90
5210;DHT22;2624;48.048;11.706;2022-10-16T10:14:20;18.80;99.90
5210;DHT22;2624;48.048;11.706;2022-10-16T10:19:24;19.00;99.90
5210;DHT22;2624;48.048;11.706;2022-10-16T10:24:26;19.70;99.90
5210;DHT22;2624;48.048;11.706;2022-10-16T10:29:35;19.40;99.90
5210;DHT22;2624;48.048;11.706;2022-10-16T10:35:00;19.80;99.90
5210;DHT22;2624;48.048;11.706;2022-10-16T10:40:15;20.30;99.90
5210;DHT22;2624;48.048;11.706;2022-10-16T10:45:26;19.70;99.90
5210;DHT22;2624;48.048;11.706;2022-10-16T10:50:34;20.20;99.90
5210;DHT22;2624;48.048;11.706;2022-10-16T10:55:44;19.70;99.90
5210;DHT22;2624;48.048;11.706;2022-10-16T11:00:51;19.50;99.90
5210;DHT22;2624;48.048;11.706;2022-10-16T11:06:01;20.20;99.90
5210;DHT22;2624;48.048;11.706;2022-10-16T11:11:08;20.40;99.90
5210;DHT22;2624;48.048;11.706;2022-10-16T11:16:16;21.00;99.90
5210;DHT22;2624;48.048;11.706;2022-10-16T11:21:21;21.20;99.90
5210;DHT22;2624;48.048;11.706;2022-10-16T11:26:27;20.70;99.90
5210;DHT22;2624;48.048;11.706;2022-10-16T11:31:34;20.40;99.90
5210;DHT22;2624;48.048;11.706;2022-10-16T11:36:43;20.50;99.90
5210;DHT22;2624;48.048;11.706;2022-10-16T11:41:48;19.90;99.90
5210;DHT22;2624;48.048;11.706;2022-10-16T11:46:57;21.50;99.90
5210;DHT22;2624;48.048;11.706;2022-10-16T11:52:07;20.10;99.90
5210;DHT22;2624;48.048;11.706;2022-10-16T11:57:13;20.50;99.90
5210;DHT22;2624;48.048;11.706;2022-10-16T12:02:39;20.80;99.90
5210;DHT22;2624;48.048;11.706;2022-10-16T12:07:48;20.90;99.90
5210;DHT22;2624;48.048;11.706;2022-10-16T12:12:52;21.10;99.90
5210;DHT22;2624;48.048;11.706;2022-10-16T12:17:54;22.30;99.90
5210;DHT22;2624;48.048;11.706;2022-10-16T12:23:00;22.40;99.90
5210;DHT22;2624;48.048;11.706;2022-10-16T12:28:04;22.60;99.90
5210;DHT22;2624;48.048;11.706;2022-10-16T12:33:19;21.70;99.90
5210;DHT22;2624;48.048;11.706;2022-10-16T12:38:27;22.30;99.90
5210;DHT22;2624;48.048;11.706;2022-10-16T12:43:38;21.70;99.90
5210;DHT22;2624;48.048;11.706;2022-10-16T12:48:42;21.50;99.90
5210;DHT22;2624;48.048;11.706;2022-10-16T12:53:46;21.30;99.90
5210;DHT22;2624;48.048;11.706;2022-10-16T12:59:00;21.30;99.90
5210;DHT22;2624;48.048;11.706;2022-10-16T13:04:16;22.40;99.90
5210;DHT22;2624;48.048;11.706;2022-10-16T13:09:35;21.40;99.90
5210;DHT22;2624;48.048;11.706;2022-10-16T13:15:06;22.30;99.90
5210;DHT22;2624;48.048;11.706;2022-10-16T13:20:16;22.80;99.90
5210;DHT22;2624;48.048;11.706;2022-10-16T13:25:27;23.00;99.90
5210;DHT22;2624;48.048;11.706;2022-10-16T13:30:34;22.50;99.90
5210;DHT22;2624;48.048;11.706;2022-10-16T13:35:47;23.00;99.90
5210;DHT22;2624;48.048;11.706;2022-10-16T13:40:56;22.60;99.90
5210;DHT22;2624;48.048;11.706;2022-10-16T13:46:00;22.60;99.90
5210;DHT22;2624;48.048;11.706;2022-10-16T13:51:05;22.50;99.90
5210;DHT22;2624;48.048;11.706;2022-10-16T13:56:11;23.00;99.90
5210;DHT22;2624;48.048;11.706;2022-10-16T14:01:17;23.00;99.90
5210;DHT22;2624;48.048;11.706;2022-10-16T14:06:21;22.60;99.90
5210;DHT22;2624;48.048;11.706;2022-10-16T14:11:25;22.40;99.90
5210;DHT22;2624;48.048;11.706;2022-10-16T14:16:28;22.70;99.90
5210;DHT22;2624;48.048;11.706;2022-10-16T14:21:31;22.80;99.90
5210;DHT22;2624;48.048;11.706;2022-10-16T14:26:41;22.90;99.90
5210;DHT22;2624;48.048;11.706;2022-10-16T14:31:43;22.70;99.90
5210;DHT22;2624;48.048;11.706;2022-10-16T14:36:55;22.60;99.90
5210;DHT22;2624;48.048;11.706;2022-10-16T14:41:59;22.60;99.90
5210;DHT22;2624;48.048;11.706;2022-10-16T14:47:09;22.50;99.90
5210;DHT22;2624;48.048;11.706;2022-10-16T14:52:14;22.40;99.90
5210;DHT22;2624;48.048;11.706;2022-10-16T14:57:19;22.30;99.90
5210;DHT22;2624;48.048;11.706;2022-10-16T15:02:29;22.20;99.90
5210;DHT22;2624;48.048;11.706;2022-10-16T15:07:31;22.10;99.90
5210;DHT22;2624;48.048;11.706;2022-10-16T15:12:35;21.90;99.90
5210;DHT22;2624;48.048;11.706;2022-10-16T15:17:37;21.80;99.90
5210;DHT22;2624;48.048;11.706;2022-10-16T15:22:38;21.70;99.90
5210;DHT22;2624;48.048;11.706;2022-10-16T15:27:42;21.60;99.90
5210;DHT22;2624;48.048;11.706;2022-10-16T15:32:43;21.50;99.90
5210;DHT22;2624;48.048;11.706;2022-10-16T15:37:46;21.20;99.90
5210;DHT22;2624;48.048;11.706;2022-10-16T15:42:50;21.20;99.90
5210;DHT22;2624;48.048;11.706;2022-10-16T15:47:51;21.20;99.90
5210;DHT22;2624;48.048;11.706;2022-10-16T15:52:53;21.10;99.90
5210;DHT22;2624;48.048;11.706;2022-10-16T15:57:56;21.00;99.90
5210;DHT22;2624;48.048;11.706;2022-10-16T16:02:58;20.90;99.90
5210;DHT22;2624;48.048;11.706;2022-10-16T16:08:00;20.90;99.90
5210;DHT22;2624;48.048;11.706;2022-10-16T16:13:03;20.90;99.90
5210;DHT22;2624;48.048;11.706;2022-10-16T16:18:05;20.80;99.90
5210;DHT22;2624;48.048;11.706;2022-10-16T16:23:07;20.80;99.90
5210;DHT22;2624;48.048;11.706;2022-10-16T16:28:10;20.60;99.90
5210;DHT22;2624;48.048;11.706;2022-10-16T16:33:14;20.60;99.90
5210;DHT22;2624;48.048;11.706;2022-10-16T16:38:16;20.30;99.90
5210;DHT22;2624;48.048;11.706;2022-10-16T16:43:19;19.80;99.90
5210;DHT22;2624;48.048;11.706;2022-10-16T16:48:23;20.00;99.90
5210;DHT22;2624;48.048;11.706;2022-10-16T16:53:25;20.10;99.90
5210;DHT22;2624;48.048;11.706;2022-10-16T16:58:28;20.00;99.90
5210;DHT22;2624;48.048;11.706;2022-10-16T17:03:32;19.50;99.90
5210;DHT22;2624;48.048;11.706;2022-10-16T17:08:34;19.60;99.90
5210;DHT22;2624;48.048;11.706;2022-10-16T17:13:37;19.70;99.90
5210;DHT22;2624;48.048;11.706;2022-10-16T17:18:39;19.60;99.90
5210;DHT22;2624;48.048;11.706;2022-10-16T17:23:42;19.50;99.90
5210;DHT22;2624;48.048;11.706;2022-10-16T17:28:45;19.60;99.90
5210;DHT22;2624;48.048;11.706;2022-10-16T17:33:47;19.50;99.90
5210;DHT22;2624;48.048;11.706;2022-10-16T17:38:51;19.30;99.90
5210;DHT22;2624;48.048;11.706;2022-10-16T17:43:54;19.00;99.90
5210;DHT22;2624;48.048;11.706;2022-10-16T17:48:56;18.80;99.90
5210;DHT22;2624;48.048;11.706;2022-10-16T17:53:59;18.60;99.90
5210;DHT22;2624;48.048;11.706;2022-10-16T17:59:03;18.40;99.90
5210;DHT22;2624;48.048;11.706;2022-10-16T18:04:06;18.50;99.90
5210;DHT22;2624;48.048;11.706;2022-10-16T18:09:10;18.40;99.90
5210;DHT22;2624;48.048;11.706;2022-10-16T18:14:16;18.30;99.90
5210;DHT22;2624;48.048;11.706;2022-10-16T18:19:19;18.40;99.90
5210;DHT22;2624;48.048;11.706;2022-10-16T18:24:21;18.50;99.90
5210;DHT22;2624;48.048;11.706;2022-10-16T18:29:26;18.30;99.90
5210;DHT22;2624;48.048;11.706;2022-10-16T18:34:28;18.00;99.90
5210;DHT22;2624;48.048;11.706;2022-10-16T18:39:30;17.90;99.90
5210;DHT22;2624;48.048;11.706;2022-10-16T18:44:33;17.80;99.90
5210;DHT22;2624;48.048;11.706;2022-10-16T18:49:35;17.90;99.90
5210;DHT22;2624;48.048;11.706;2022-10-16T18:54:37;18.10;99.90
5210;DHT22;2624;48.048;11.706;2022-10-16T18:59:40;18.10;99.90
5210;DHT22;2624;48.048;11.706;2022-10-16T19:04:42;18.30;99.90
5210;DHT22;2624;48.048;11.706;2022-10-16T19:09:44;18.20;99.90
5210;DHT22;2624;48.048;11.706;2022-10-16T19:14:48;18.30;99.90
5210;DHT22;2624;48.048;11.706;2022-10-16T19:19:50;18.30;99.90
5210;DHT22;2624;48.048;11.706;2022-10-16T19:24:52;18.20;99.90
5210;DHT22;2624;48.048;11.706;2022-10-16T19:29:55;18.20;99.90
5210;DHT22;2624;48.048;11.706;2022-10-16T19:34:57;18.20;99.90
5210;DHT22;2624;48.048;11.706;2022-10-16T19:39:59;18.00;99.90
5210;DHT22;2624;48.048;11.706;2022-10-16T19:45:02;18.00;99.90
5210;DHT22;2624;48.048;11.706;2022-10-16T19:50:05;18.00;99.90
5210;DHT22;2624;48.048;11.706;2022-10-16T19:55:09;18.00;99.90
5210;DHT22;2624;48.048;11.706;2022-10-16T20:00:13;18.00;99.90
5210;DHT22;2624;48.048;11.706;2022-10-16T20:05:17;17.90;99.90
5210;DHT22;2624;48.048;11.706;2022-10-16T20:10:18;17.90;99.90
5210;DHT22;2624;48.048;11.706;2022-10-16T20:15:22;17.80;99.90
5210;DHT22;2624;48.048;11.706;2022-10-16T20:20:23;17.50;99.90
5210;DHT22;2624;48.048;11.706;2022-10-16T20:25:25;17.40;99.90
5210;DHT22;2624;48.048;11.706;2022-10-16T20:30:32;17.40;99.90
5210;DHT22;2624;48.048;11.706;2022-10-16T20:35:35;17.30;99.90
5210;DHT22;2624;48.048;11.706;2022-10-16T20:40:39;17.20;99.90
5210;DHT22;2624;48.048;11.706;2022-10-16T20:45:43;17.00;99.90
5210;DHT22;2624;48.048;11.706;2022-10-16T20:50:45;16.50;99.90
5210;DHT22;2624;48.048;11.706;2022-10-16T20:55:46;16.30;99.90
5210;DHT22;2624;48.048;11.706;2022-10-16T21:00:50;16.20;99.90
5210;DHT22;2624;48.048;11.706;2022-10-16T21:05:51;16.20;99.90
5210;DHT22;2624;48.048;11.706;2022-10-16T21:10:53;16.20;99.90
5210;DHT22;2624;48.048;11.706;2022-10-16T21:15:56;16.40;99.90
5210;DHT22;2624;48.048;11.706;2022-10-16T21:20:58;16.30;99.90
5210;DHT22;2624;48.048;11.706;2022-10-16T21:26:00;16.10;99.90
5210;DHT22;2624;48.048;11.706;2022-10-16T21:31:11;16.10;99.90
5210;DHT22;2624;48.048;11.706;2022-10-16T21:36:15;16.20;99.90
5210;DHT22;2624;48.048;11.706;2022-10-16T21:41:19;16.50;99.90
5210;DHT22;2624;48.048;11.706;2022-10-16T21:46:24;16.30;99.90
5210;DHT22;2624;48.048;11.706;2022-10-16T21:51:28;15.80;99.90
5210;DHT22;2624;48.048;11.706;2022-10-16T21:56:30;15.70;99.90
5210;DHT22;2624;48.048;11.706;2022-10-16T22:01:34;15.80;99.90
5210;DHT22;2624;48.048;11.706;2022-10-16T22:06:35;15.30;99.90
5210;DHT22;2624;48.048;11.706;2022-10-16T22:11:37;15.00;99.90
5210;DHT22;2624;48.048;11.706;2022-10-16T22:16:40;15.00;99.90
5210;DHT22;2624;48.048;11.706;2022-10-16T22:21:43;15.10;99.90
5210;DHT22;2624;48.048;11.706;2022-10-16T22:26:46;15.20;99.90
5210;DHT22;2624;48.048;11.706;2022-10-16T22:31:51;15.00;99.90
5210;DHT22;2624;48.048;11.706;2022-10-16T22:36:53;14.80;99.90
5210;DHT22;2624;48.048;11.706;2022-10-16T22:41:55;14.60;99.90
5210;DHT22;2624;48.048;11.706;2022-10-16T22:46:58;14.40;99.90
5210;DHT22;2624;48.048;11.706;2022-10-16T22:52:00;14.50;99.90
5210;DHT22;2624;48.048;11.706;2022-10-16T22:57:01;14.40;99.90
5210;DHT22;2624;48.048;11.706;2022-10-16T23:02:04;14.50;99.90
5210;DHT22;2624;48.048;11.706;2022-10-16T23:07:06;14.30;99.90
5210;DHT22;2624;48.048;11.706;2022-10-16T23:12:08;14.10;99.90
5210;DHT22;2624;48.048;11.706;2022-10-16T23:17:11;14.10;99.90
5210;DHT22;2624;48.048;11.706;2022-10-16T23:22:13;14.20;99.90
5210;DHT22;2624;48.048;11.706;2022-10-16T23:27:15;14.30;99.90
5210;DHT22;2624;48.048;11.706;2022-10-16T23:32:18;14.50;99.90
5210;DHT22;2624;48.048;11.706;2022-10-16T23:37:20;14.90;99.90
5210;DHT22;2624;48.048;11.706;2022-10-16T23:42:22;14.70;99.90
5210;DHT22;2624;48.048;11.706;2022-10-16T23:47:25;14.60;99.90
5210;DHT22;2624;48.048;11.706;2022-10-16T23:52:26;14.30;99.90
5210;DHT22;2624;48.048;11.706;2022-10-16T23:57:28;14.70;99.90
